sensor_id;sensor_type;location;lat;lon;timestamp;pressure;altitude;pressure_sealevel;temperature;humidity
54194;BME280;40102;50.906;6.972;2024-02-21T00:01:22;101751.16;;;9.47;80.67
54194;BME280;40102;50.906;6.972;2024-02-21T00:03:48;101750.34;;;9.45;80.79
54194;BME280;40102;50.906;6.972;2024-02-21T00:06:13;101750.38;;;9.43;80.82
54194;BME280;40102;50.906;6.972;2024-02-21T00:08:38;101747.72;;;9.43;80.92
54194;BME280;40102;50.906;6.972;2024-02-21T00:11:04;101749.41;;;9.46;80.94
54194;BME280;40102;50.906;6.972;2024-02-21T00:13:29;101738.72;;;9.46;80.65
54194;BME280;40102;50.906;6.972;2024-02-21T00:15:55;101746.69;;;9.47;80.82
54194;BME280;40102;50.906;6.972;2024-02-21T00:18:21;101743.97;;;9.49;80.99
54194;BME280;40102;50.906;6.972;2024-02-21T00:20:46;101741.34;;;9.47;80.67
54194;BME280;40102;50.906;6.972;2024-02-21T00:23:11;101736.88;;;9.48;80.81
54194;BME280;40102;50.906;6.972;2024-02-21T00:25:37;101734.16;;;9.49;81.21
54194;BME280;40102;50.906;6.972;2024-02-21T00:28:02;101718.28;;;9.45;80.77
54194;BME280;40102;50.906;6.972;2024-02-21T00:30:28;101713.13;;;9.40;81.29
54194;BME280;40102;50.906;6.972;2024-02-21T00:32:53;101717.63;;;9.38;81.69
54194;BME280;40102;50.906;6.972;2024-02-21T00:35:18;101713.13;;;9.40;81.63
54194;BME280;40102;50.906;6.972;2024-02-21T00:37:44;101712.13;;;9.43;81.93
54194;BME280;40102;50.906;6.972;2024-02-21T00:40:10;101709.41;;;9.44;82.33
54194;BME280;40102;50.906;6.972;2024-02-21T00:42:35;101714.66;;;9.47;81.74
54194;BME280;40102;50.906;6.972;2024-02-21T00:45:01;101709.34;;;9.46;81.97
54194;BME280;40102;50.906;6.972;2024-02-21T00:47:26;101709.53;;;9.41;82.23
54194;BME280;40102;50.906;6.972;2024-02-21T00:49:51;101702.31;;;9.43;82.12
54194;BME280;40102;50.906;6.972;2024-02-21T00:52:17;101705.81;;;9.45;82.05
54194;BME280;40102;50.906;6.972;2024-02-21T00:54:43;101707.66;;;9.43;82.42
54194;BME280;40102;50.906;6.972;2024-02-21T00:57:08;101692.69;;;9.39;82.46
54194;BME280;40102;50.906;6.972;2024-02-21T00:59:34;101692.84;;;9.34;82.87
54194;BME280;40102;50.906;6.972;2024-02-21T01:01:59;101688.31;;;9.36;83.16
54194;BME280;40102;50.906;6.972;2024-02-21T01:04:25;101686.56;;;9.35;83.28
54194;BME280;40102;50.906;6.972;2024-02-21T01:06:50;101693.66;;;9.36;83.19
54194;BME280;40102;50.906;6.972;2024-02-21T01:09:15;101690.78;;;9.43;82.98
54194;BME280;40102;50.906;6.972;2024-02-21T01:11:41;101682.66;;;9.46;83.15
54194;BME280;40102;50.906;6.972;2024-02-21T01:14:06;101679.22;;;9.42;83.16
54194;BME280;40102;50.906;6.972;2024-02-21T01:16:31;101679.06;;;9.47;82.97
54194;BME280;40102;50.906;6.972;2024-02-21T01:18:57;101673.66;;;9.48;83.15
54194;BME280;40102;50.906;6.972;2024-02-21T01:21:22;101678.19;;;9.46;82.91
54194;BME280;40102;50.906;6.972;2024-02-21T01:23:48;101670.16;;;9.46;82.91
54194;BME280;40102;50.906;6.972;2024-02-21T01:26:13;101669.06;;;9.52;82.67
54194;BME280;40102;50.906;6.972;2024-02-21T01:28:41;101662.75;;;9.54;82.71
54194;BME280;40102;50.906;6.972;2024-02-21T01:31:06;101669.91;;;9.54;82.58
54194;BME280;40102;50.906;6.972;2024-02-21T01:33:32;101660.19;;;9.51;82.98
54194;BME280;40102;50.906;6.972;2024-02-21T01:36:01;101662.09;;;9.48;82.86
54194;BME280;40102;50.906;6.972;2024-02-21T01:38:27;101651.66;;;9.41;82.79
54194;BME280;40102;50.906;6.972;2024-02-21T01:40:53;101655.28;;;9.39;83.62
54194;BME280;40102;50.906;6.972;2024-02-21T01:43:20;101658.88;;;9.38;83.72
54194;BME280;40102;50.906;6.972;2024-02-21T01:45:50;101651.88;;;9.35;83.93
54194;BME280;40102;50.906;6.972;2024-02-21T01:48:18;101650.34;;;9.28;84.03
54194;BME280;40102;50.906;6.972;2024-02-21T01:50:47;101646.09;;;9.23;84.00
54194;BME280;40102;50.906;6.972;2024-02-21T01:53:16;101643.59;;;9.18;84.59
54194;BME280;40102;50.906;6.972;2024-02-21T01:55:46;101635.56;;;9.18;84.78
54194;BME280;40102;50.906;6.972;2024-02-21T01:58:16;101634.66;;;9.19;85.34
54194;BME280;40102;50.906;6.972;2024-02-21T02:00:43;101632.78;;;9.21;85.15
54194;BME280;40102;50.906;6.972;2024-02-21T02:03:12;101630.94;;;9.23;85.22
54194;BME280;40102;50.906;6.972;2024-02-21T02:08:10;101611.97;;;9.31;84.62
54194;BME280;40102;50.906;6.972;2024-02-21T02:10:36;101611.94;;;9.32;84.62
54194;BME280;40102;50.906;6.972;2024-02-21T02:13:02;101606.66;;;9.31;84.93
54194;BME280;40102;50.906;6.972;2024-02-21T02:15:49;101590.72;;;9.28;84.76
54194;BME280;40102;50.906;6.972;2024-02-21T02:18:16;101597.06;;;9.25;85.41
54194;BME280;40102;50.906;6.972;2024-02-21T02:20:41;101595.44;;;9.21;85.34
54194;BME280;40102;50.906;6.972;2024-02-21T02:23:11;101592.75;;;9.21;85.61
54194;BME280;40102;50.906;6.972;2024-02-21T02:25:38;101580.38;;;9.19;85.64
54194;BME280;40102;50.906;6.972;2024-02-21T02:28:05;101586.59;;;9.19;85.80
54194;BME280;40102;50.906;6.972;2024-02-21T02:30:35;101577.72;;;9.19;86.63
54194;BME280;40102;50.906;6.972;2024-02-21T02:33:04;101577.63;;;9.22;86.27
54194;BME280;40102;50.906;6.972;2024-02-21T02:35:31;101559.69;;;9.25;86.08
54194;BME280;40102;50.906;6.972;2024-02-21T02:37:56;101548.06;;;9.26;86.16
54194;BME280;40102;50.906;6.972;2024-02-21T02:40:22;101545.28;;;9.29;85.91
54194;BME280;40102;50.906;6.972;2024-02-21T02:42:47;101545.28;;;9.29;85.73
54194;BME280;40102;50.906;6.972;2024-02-21T02:45:15;101552.25;;;9.33;85.76
54194;BME280;40102;50.906;6.972;2024-02-21T02:47:40;101545.94;;;9.36;85.56
54194;BME280;40102;50.906;6.972;2024-02-21T02:50:06;101543.38;;;9.33;85.60
54194;BME280;40102;50.906;6.972;2024-02-21T02:52:32;101546.97;;;9.32;85.99
54194;BME280;40102;50.906;6.972;2024-02-21T02:54:57;101550.41;;;9.35;85.98
54194;BME280;40102;50.906;6.972;2024-02-21T02:57:23;101545.06;;;9.35;85.52
54194;BME280;40102;50.906;6.972;2024-02-21T02:59:48;101542.41;;;9.35;85.71
54194;BME280;40102;50.906;6.972;2024-02-21T03:02:14;101539.94;;;9.29;86.21
54194;BME280;40102;50.906;6.972;2024-02-21T03:04:40;101545.19;;;9.32;86.12
54194;BME280;40102;50.906;6.972;2024-02-21T03:07:06;101538.22;;;9.28;85.97
54194;BME280;40102;50.906;6.972;2024-02-21T03:09:31;101534.63;;;9.29;86.14
54194;BME280;40102;50.906;6.972;2024-02-21T03:11:57;101534.66;;;9.28;86.01
54194;BME280;40102;50.906;6.972;2024-02-21T03:14:28;101535.59;;;9.27;86.35
54194;BME280;40102;50.906;6.972;2024-02-21T03:16:53;101529.50;;;9.23;86.23
54194;BME280;40102;50.906;6.972;2024-02-21T03:19:18;101513.50;;;9.23;86.34
54194;BME280;40102;50.906;6.972;2024-02-21T03:21:44;101507.41;;;9.20;86.55
54194;BME280;40102;50.906;6.972;2024-02-21T03:24:09;101503.91;;;9.18;86.60
54194;BME280;40102;50.906;6.972;2024-02-21T03:26:34;101502.22;;;9.15;86.85
54194;BME280;40102;50.906;6.972;2024-02-21T03:28:59;101508.50;;;9.14;86.88
54194;BME280;40102;50.906;6.972;2024-02-21T03:31:25;101505.88;;;9.13;86.96
54194;BME280;40102;50.906;6.972;2024-02-21T03:33:50;101496.94;;;9.14;87.05
54194;BME280;40102;50.906;6.972;2024-02-21T03:36:15;101495.19;;;9.13;86.93
54194;BME280;40102;50.906;6.972;2024-02-21T03:38:41;101485.47;;;9.12;86.64
54194;BME280;40102;50.906;6.972;2024-02-21T03:41:09;101494.28;;;9.14;86.86
54194;BME280;40102;50.906;6.972;2024-02-21T03:43:34;101493.34;;;9.15;86.85
54194;BME280;40102;50.906;6.972;2024-02-21T03:45:59;101482.63;;;9.16;86.69
54194;BME280;40102;50.906;6.972;2024-02-21T03:48:24;101478.25;;;9.14;86.28
54194;BME280;40102;50.906;6.972;2024-02-21T03:50:51;101481.06;;;9.11;86.70
54194;BME280;40102;50.906;6.972;2024-02-21T03:53:16;101486.38;;;9.11;87.25
54194;BME280;40102;50.906;6.972;2024-02-21T03:55:42;101477.44;;;9.12;86.92
54194;BME280;40102;50.906;6.972;2024-02-21T03:58:07;101477.41;;;9.13;86.95
54194;BME280;40102;50.906;6.972;2024-02-21T04:00:33;101480.06;;;9.13;86.91
54194;BME280;40102;50.906;6.972;2024-02-21T04:02:58;101478.25;;;9.14;86.68
54194;BME280;40102;50.906;6.972;2024-02-21T04:05:23;101483.66;;;9.12;86.94
54194;BME280;40102;50.906;6.972;2024-02-21T04:07:49;101484.75;;;9.06;87.10
54194;BME280;40102;50.906;6.972;2024-02-21T04:10:14;101480.41;;;9.04;87.29
54194;BME280;40102;50.906;6.972;2024-02-21T04:12:40;101491.91;;;9.06;86.86
54194;BME280;40102;50.906;6.972;2024-02-21T04:15:05;101503.38;;;9.08;86.81
54194;BME280;40102;50.906;6.972;2024-02-21T04:17:31;101495.19;;;9.13;86.81
54194;BME280;40102;50.906;6.972;2024-02-21T04:20:04;101494.34;;;9.12;86.89
54194;BME280;40102;50.906;6.972;2024-02-21T04:22:33;101490.25;;;9.02;86.90
54194;BME280;40102;50.906;6.972;2024-02-21T04:25:00;101487.53;;;9.03;87.10
54194;BME280;40102;50.906;6.972;2024-02-21T04:27:26;101476.00;;;9.03;86.88
54194;BME280;40102;50.906;6.972;2024-02-21T04:29:52;101473.31;;;9.03;86.87
54194;BME280;40102;50.906;6.972;2024-02-21T04:32:17;101465.38;;;9.01;86.93
54194;BME280;40102;50.906;6.972;2024-02-21T04:34:42;101465.31;;;9.03;86.69
54194;BME280;40102;50.906;6.972;2024-02-21T04:37:07;101453.91;;;8.99;86.89
54194;BME280;40102;50.906;6.972;2024-02-21T04:39:33;101451.34;;;8.96;86.72
54194;BME280;40102;50.906;6.972;2024-02-21T04:41:58;101456.84;;;8.92;86.67
54194;BME280;40102;50.906;6.972;2024-02-21T04:44:23;101455.22;;;8.88;86.74
54194;BME280;40102;50.906;6.972;2024-02-21T04:46:49;101461.38;;;8.90;86.98
54194;BME280;40102;50.906;6.972;2024-02-21T04:49:17;101445.25;;;8.93;86.63
54194;BME280;40102;50.906;6.972;2024-02-21T04:51:42;101457.66;;;8.94;87.02
54194;BME280;40102;50.906;6.972;2024-02-21T04:54:08;101458.53;;;8.94;86.69
54194;BME280;40102;50.906;6.972;2024-02-21T04:56:34;101462.19;;;8.92;86.76
54194;BME280;40102;50.906;6.972;2024-02-21T04:58:59;101455.97;;;8.91;86.72
54194;BME280;40102;50.906;6.972;2024-02-21T05:04:00;101455.91;;;8.93;86.71
54194;BME280;40102;50.906;6.972;2024-02-21T05:06:25;101453.03;;;8.99;86.66
54194;BME280;40102;50.906;6.972;2024-02-21T05:08:50;101451.97;;;9.03;86.18
54194;BME280;40102;50.906;6.972;2024-02-21T05:11:16;101457.25;;;9.04;86.27
54194;BME280;40102;50.906;6.972;2024-02-21T05:13:41;101452.75;;;9.06;86.49
54194;BME280;40102;50.906;6.972;2024-02-21T05:16:06;101458.06;;;9.06;86.22
54194;BME280;40102;50.906;6.972;2024-02-21T05:18:32;101454.59;;;9.04;86.07
54194;BME280;40102;50.906;6.972;2024-02-21T05:20:58;101451.00;;;9.05;86.07
54194;BME280;40102;50.906;6.972;2024-02-21T05:23:24;101454.53;;;9.06;86.00
54194;BME280;40102;50.906;6.972;2024-02-21T05:25:49;101462.53;;;9.06;85.71
54194;BME280;40102;50.906;6.972;2024-02-21T05:28:14;101459.88;;;9.06;86.17
54194;BME280;40102;50.906;6.972;2024-02-21T05:30:40;101456.50;;;9.01;85.94
54194;BME280;40102;50.906;6.972;2024-02-21T05:33:06;101446.75;;;9.00;85.98
54194;BME280;40102;50.906;6.972;2024-02-21T05:35:31;101437.00;;;8.99;86.24
54194;BME280;40102;50.906;6.972;2024-02-21T05:37:57;101439.69;;;8.99;86.16
54194;BME280;40102;50.906;6.972;2024-02-21T05:40:22;101426.56;;;8.93;86.57
54194;BME280;40102;50.906;6.972;2024-02-21T05:42:48;101424.78;;;8.93;86.96
54194;BME280;40102;50.906;6.972;2024-02-21T05:45:13;101419.44;;;8.93;86.75
54194;BME280;40102;50.906;6.972;2024-02-21T05:47:41;101422.91;;;8.95;86.81
54194;BME280;40102;50.906;6.972;2024-02-21T05:50:06;101424.59;;;8.98;86.54
54194;BME280;40102;50.906;6.972;2024-02-21T05:52:31;101434.13;;;9.05;86.25
54194;BME280;40102;50.906;6.972;2024-02-21T05:54:57;101431.44;;;9.05;86.14
54194;BME280;40102;50.906;6.972;2024-02-21T05:57:22;101432.38;;;9.04;86.00
54194;BME280;40102;50.906;6.972;2024-02-21T05:59:47;101431.50;;;9.03;86.29
54194;BME280;40102;50.906;6.972;2024-02-21T06:02:13;101430.50;;;9.06;85.74
54194;BME280;40102;50.906;6.972;2024-02-21T06:04:38;101422.38;;;9.09;85.86
54194;BME280;40102;50.906;6.972;2024-02-21T06:07:04;101433.88;;;9.11;85.71
54194;BME280;40102;50.906;6.972;2024-02-21T06:09:30;101433.75;;;9.14;85.82
54194;BME280;40102;50.906;6.972;2024-02-21T06:11:55;101428.41;;;9.14;85.50
54194;BME280;40102;50.906;6.972;2024-02-21T06:14:20;101416.81;;;9.15;85.47
54194;BME280;40102;50.906;6.972;2024-02-21T06:16:46;101412.34;;;9.16;85.51
54194;BME280;40102;50.906;6.972;2024-02-21T06:19:11;101406.09;;;9.17;85.15
54194;BME280;40102;50.906;6.972;2024-02-21T06:21:36;101407.75;;;9.19;85.47
54194;BME280;40102;50.906;6.972;2024-02-21T06:24:02;101409.44;;;9.22;85.56
54194;BME280;40102;50.906;6.972;2024-02-21T06:26:28;101403.97;;;9.25;85.45
54194;BME280;40102;50.906;6.972;2024-02-21T06:28:53;101404.03;;;9.23;85.03
54194;BME280;40102;50.906;6.972;2024-02-21T06:31:18;101399.63;;;9.22;85.11
54194;BME280;40102;50.906;6.972;2024-02-21T06:33:44;101399.34;;;9.30;95.66
54194;BME280;40102;50.906;6.972;2024-02-21T06:36:09;101394.06;;;9.72;100.00
54194;BME280;40102;50.906;6.972;2024-02-21T06:38:34;101394.97;;;10.13;100.00
54194;BME280;40102;50.906;6.972;2024-02-21T06:41:00;101399.13;;;10.41;89.06
54194;BME280;40102;50.906;6.972;2024-02-21T06:43:27;101396.81;;;10.33;81.62
54194;BME280;40102;50.906;6.972;2024-02-21T06:45:52;101385.22;;;10.12;81.67
54194;BME280;40102;50.906;6.972;2024-02-21T06:48:19;101376.38;;;9.90;81.94
54194;BME280;40102;50.906;6.972;2024-02-21T06:50:44;101384.31;;;9.71;82.88
54194;BME280;40102;50.906;6.972;2024-02-21T06:53:10;101367.41;;;9.49;83.13
54194;BME280;40102;50.906;6.972;2024-02-21T06:55:35;101364.19;;;9.40;83.81
54194;BME280;40102;50.906;6.972;2024-02-21T06:58:01;101364.81;;;9.25;84.25
54194;BME280;40102;50.906;6.972;2024-02-21T07:00:28;101365.94;;;9.20;84.70
54194;BME280;40102;50.906;6.972;2024-02-21T07:02:53;101364.31;;;9.16;84.91
54194;BME280;40102;50.906;6.972;2024-02-21T07:05:19;101367.84;;;9.16;85.17
54194;BME280;40102;50.906;6.972;2024-02-21T07:07:44;101364.44;;;9.13;85.08
54194;BME280;40102;50.906;6.972;2024-02-21T07:10:10;101361.94;;;9.08;85.85
54194;BME280;40102;50.906;6.972;2024-02-21T07:12:36;101360.56;;;8.98;85.74
54194;BME280;40102;50.906;6.972;2024-02-21T07:15:04;101356.38;;;8.91;86.02
54194;BME280;40102;50.906;6.972;2024-02-21T07:17:29;101356.63;;;8.85;86.73
54194;BME280;40102;50.906;6.972;2024-02-21T07:19:55;101356.50;;;8.88;86.93
54194;BME280;40102;50.906;6.972;2024-02-21T07:22:22;101354.66;;;8.90;86.89
54194;BME280;40102;50.906;6.972;2024-02-21T07:24:47;101347.53;;;8.90;86.27
54194;BME280;40102;50.906;6.972;2024-02-21T07:27:15;101347.41;;;8.93;86.35
54194;BME280;40102;50.906;6.972;2024-02-21T07:29:40;101339.34;;;8.95;86.56
54194;BME280;40102;50.906;6.972;2024-02-21T07:32:06;101346.41;;;8.96;86.44
54194;BME280;40102;50.906;6.972;2024-02-21T07:34:31;101350.06;;;8.93;86.69
54194;BME280;40102;50.906;6.972;2024-02-21T07:36:57;101357.94;;;8.96;87.00
54194;BME280;40102;50.906;6.972;2024-02-21T07:39:22;101343.97;;;8.90;87.22
54194;BME280;40102;50.906;6.972;2024-02-21T07:41:47;101348.69;;;8.83;86.59
54194;BME280;40102;50.906;6.972;2024-02-21T07:44:14;101347.13;;;8.77;87.75
54194;BME280;40102;50.906;6.972;2024-02-21T07:46:39;101346.31;;;8.75;87.46
54194;BME280;40102;50.906;6.972;2024-02-21T07:49:05;101349.16;;;8.71;87.51
54194;BME280;40102;50.906;6.972;2024-02-21T07:51:30;101351.88;;;8.69;87.44
54194;BME280;40102;50.906;6.972;2024-02-21T07:53:55;101343.75;;;8.72;87.71
54194;BME280;40102;50.906;6.972;2024-02-21T07:56:21;101350.78;;;8.75;87.64
54194;BME280;40102;50.906;6.972;2024-02-21T07:58:46;101337.50;;;8.73;87.30
54194;BME280;40102;50.906;6.972;2024-02-21T08:01:11;101339.34;;;8.71;87.52
54194;BME280;40102;50.906;6.972;2024-02-21T08:03:36;101329.72;;;8.67;87.32
54194;BME280;40102;50.906;6.972;2024-02-21T08:06:03;101335.06;;;8.67;87.54
54194;BME280;40102;50.906;6.972;2024-02-21T08:08:28;101334.03;;;8.71;87.43
54194;BME280;40102;50.906;6.972;2024-02-21T08:10:53;101328.75;;;8.70;87.15
54194;BME280;40102;50.906;6.972;2024-02-21T08:13:19;101323.47;;;8.68;86.95
54194;BME280;40102;50.906;6.972;2024-02-21T08:15:44;101315.47;;;8.68;87.06
54194;BME280;40102;50.906;6.972;2024-02-21T08:18:09;101315.53;;;8.67;86.78
54194;BME280;40102;50.906;6.972;2024-02-21T08:20:35;101318.88;;;8.72;87.11
54194;BME280;40102;50.906;6.972;2024-02-21T08:23:00;101304.81;;;8.68;86.61
54194;BME280;40102;50.906;6.972;2024-02-21T08:25:26;101301.09;;;8.72;87.02
54194;BME280;40102;50.906;6.972;2024-02-21T08:27:51;101299.28;;;8.73;86.22
54194;BME280;40102;50.906;6.972;2024-02-21T08:30:17;101299.41;;;8.70;85.90
54194;BME280;40102;50.906;6.972;2024-02-21T08:32:42;101295.00;;;8.69;85.61
54194;BME280;40102;50.906;6.972;2024-02-21T08:35:08;101283.47;;;8.68;85.35
54194;BME280;40102;50.906;6.972;2024-02-21T08:37:33;101290.47;;;8.71;85.93
54194;BME280;40102;50.906;6.972;2024-02-21T08:39:59;101275.41;;;8.70;85.99
54194;BME280;40102;50.906;6.972;2024-02-21T08:42:29;101278.88;;;8.72;85.84
54194;BME280;40102;50.906;6.972;2024-02-21T08:44:55;101277.09;;;8.72;85.26
54194;BME280;40102;50.906;6.972;2024-02-21T08:47:20;101269.09;;;8.72;84.91
54194;BME280;40102;50.906;6.972;2024-02-21T08:49:45;101273.53;;;8.72;84.86
54194;BME280;40102;50.906;6.972;2024-02-21T08:52:10;101269.03;;;8.74;84.71
54194;BME280;40102;50.906;6.972;2024-02-21T08:54:36;101261.81;;;8.76;84.38
54194;BME280;40102;50.906;6.972;2024-02-21T08:57:01;101255.56;;;8.77;83.81
54194;BME280;40102;50.906;6.972;2024-02-21T08:59:26;101251.28;;;8.73;83.40
54194;BME280;40102;50.906;6.972;2024-02-21T09:01:52;101251.16;;;8.76;83.60
54194;BME280;40102;50.906;6.972;2024-02-21T09:04:18;101247.50;;;8.79;83.56
54194;BME280;40102;50.906;6.972;2024-02-21T09:06:44;101239.19;;;8.86;83.00
54194;BME280;40102;50.906;6.972;2024-02-21T09:09:11;101236.22;;;8.94;82.79
54194;BME280;40102;50.906;6.972;2024-02-21T09:11:36;101216.72;;;8.92;82.37
54194;BME280;40102;50.906;6.972;2024-02-21T09:14:02;101222.75;;;8.97;81.39
54194;BME280;40102;50.906;6.972;2024-02-21T09:16:32;101219.28;;;8.95;80.53
54194;BME280;40102;50.906;6.972;2024-02-21T09:18:57;101218.41;;;8.94;80.78
54194;BME280;40102;50.906;6.972;2024-02-21T09:21:23;101216.59;;;8.95;80.46
54194;BME280;40102;50.906;6.972;2024-02-21T09:23:48;101211.34;;;8.93;80.48
54194;BME280;40102;50.906;6.972;2024-02-21T09:26:14;101205.13;;;8.93;79.93
54194;BME280;40102;50.906;6.972;2024-02-21T09:28:41;101216.66;;;8.93;79.79
54194;BME280;40102;50.906;6.972;2024-02-21T09:31:07;101215.88;;;8.91;79.66
54194;BME280;40102;50.906;6.972;2024-02-21T09:33:32;101211.34;;;8.93;79.74
54194;BME280;40102;50.906;6.972;2024-02-21T09:35:58;101206.88;;;8.94;79.29
54194;BME280;40102;50.906;6.972;2024-02-21T09:38:24;101205.00;;;8.96;79.39
54194;BME280;40102;50.906;6.972;2024-02-21T09:41:08;101199.59;;;8.97;78.97
54194;BME280;40102;50.906;6.972;2024-02-21T09:43:38;101187.94;;;9.00;79.05
54194;BME280;40102;50.906;6.972;2024-02-21T09:46:05;101192.34;;;9.01;78.78
54194;BME280;40102;50.906;6.972;2024-02-21T09:51:05;101177.13;;;9.03;77.43
54194;BME280;40102;50.906;6.972;2024-02-21T09:53:32;101176.88;;;9.09;78.19
54194;BME280;40102;50.906;6.972;2024-02-21T09:55:59;101170.47;;;9.13;78.53
54194;BME280;40102;50.906;6.972;2024-02-21T09:58:26;101164.00;;;9.19;78.04
54194;BME280;40102;50.906;6.972;2024-02-21T10:00:52;101164.88;;;9.19;77.98
54194;BME280;40102;50.906;6.972;2024-02-21T10:03:18;101164.75;;;9.22;77.91
54194;BME280;40102;50.906;6.972;2024-02-21T10:05:48;101166.34;;;9.26;77.08
54194;BME280;40102;50.906;6.972;2024-02-21T10:08:15;101171.69;;;9.26;76.72
54194;BME280;40102;50.906;6.972;2024-02-21T10:10:42;101171.56;;;9.29;76.00
54194;BME280;40102;50.906;6.972;2024-02-21T10:13:09;101161.34;;;9.19;74.37
54194;BME280;40102;50.906;6.972;2024-02-21T10:15:35;101165.75;;;9.20;75.27
54194;BME280;40102;50.906;6.972;2024-02-21T10:18:01;101162.28;;;9.18;74.78
54194;BME280;40102;50.906;6.972;2024-02-21T10:20:28;101154.13;;;9.21;75.58
54194;BME280;40102;50.906;6.972;2024-02-21T10:23:05;101161.06;;;9.25;75.12
54194;BME280;40102;50.906;6.972;2024-02-21T10:25:34;101157.66;;;9.21;74.57
54194;BME280;40102;50.906;6.972;2024-02-21T10:28:01;101159.47;;;9.21;74.46
54194;BME280;40102;50.906;6.972;2024-02-21T10:30:26;101153.28;;;9.20;75.06
54194;BME280;40102;50.906;6.972;2024-02-21T10:32:53;101151.41;;;9.22;74.67
54194;BME280;40102;50.906;6.972;2024-02-21T10:35:29;101142.31;;;9.26;75.01
54194;BME280;40102;50.906;6.972;2024-02-21T10:37:58;101139.38;;;9.32;75.44
54194;BME280;40102;50.906;6.972;2024-02-21T10:40:28;101141.00;;;9.36;75.33
54194;BME280;40102;50.906;6.972;2024-02-21T10:42:57;101138.63;;;9.49;75.32
54194;BME280;40102;50.906;6.972;2024-02-21T10:45:35;101120.88;;;9.48;74.17
54194;BME280;40102;50.906;6.972;2024-02-21T10:48:19;101118.28;;;9.47;73.77
54194;BME280;40102;50.906;6.972;2024-02-21T10:51:02;101120.81;;;9.50;73.42
54194;BME280;40102;50.906;6.972;2024-02-21T10:58:49;101113.47;;;9.55;73.09
54194;BME280;40102;50.906;6.972;2024-02-21T11:01:15;101101.84;;;9.56;73.29
54194;BME280;40102;50.906;6.972;2024-02-21T11:03:44;101094.78;;;9.55;73.05
54194;BME280;40102;50.906;6.972;2024-02-21T11:06:11;101074.06;;;9.60;72.71
54194;BME280;40102;50.906;6.972;2024-02-21T11:08:37;101074.88;;;9.62;73.67
54194;BME280;40102;50.906;6.972;2024-02-21T11:11:04;101067.56;;;9.65;73.24
54194;BME280;40102;50.906;6.972;2024-02-21T11:13:31;101068.38;;;9.67;72.62
54194;BME280;40102;50.906;6.972;2024-02-21T11:16:11;101062.16;;;9.67;72.15
54194;BME280;40102;50.906;6.972;2024-02-21T11:18:39;101039.84;;;9.68;72.81
54194;BME280;40102;50.906;6.972;2024-02-21T11:21:05;101038.63;;;9.75;73.20
54194;BME280;40102;50.906;6.972;2024-02-21T11:23:31;101032.28;;;9.78;71.83
54194;BME280;40102;50.906;6.972;2024-02-21T11:26:07;101014.44;;;9.78;71.75
54194;BME280;40102;50.906;6.972;2024-02-21T11:28:33;101003.59;;;9.81;71.93
54194;BME280;40102;50.906;6.972;2024-02-21T11:31:09;100999.06;;;9.83;71.97
54194;BME280;40102;50.906;6.972;2024-02-21T11:33:42;100982.72;;;9.89;72.07
54194;BME280;40102;50.906;6.972;2024-02-21T11:36:08;100968.34;;;9.92;71.58
54194;BME280;40102;50.906;6.972;2024-02-21T11:38:34;100968.13;;;9.96;71.48
54194;BME280;40102;50.906;6.972;2024-02-21T11:40:59;100949.13;;;10.02;71.09
54194;BME280;40102;50.906;6.972;2024-02-21T11:43:24;100932.84;;;10.07;71.73
54194;BME280;40102;50.906;6.972;2024-02-21T11:45:50;100932.69;;;10.10;70.96
54194;BME280;40102;50.906;6.972;2024-02-21T11:48:23;100937.97;;;10.12;70.66
54194;BME280;40102;50.906;6.972;2024-02-21T11:50:56;100922.00;;;10.10;69.92
54194;BME280;40102;50.906;6.972;2024-02-21T11:53:22;100916.81;;;10.07;69.68
54194;BME280;40102;50.906;6.972;2024-02-21T11:55:47;100915.56;;;10.14;69.83
54194;BME280;40102;50.906;6.972;2024-02-21T11:58:13;100905.81;;;10.13;69.79
54194;BME280;40102;50.906;6.972;2024-02-21T12:00:38;100893.31;;;10.14;69.85
54194;BME280;40102;50.906;6.972;2024-02-21T12:03:04;100896.06;;;10.12;69.71
54194;BME280;40102;50.906;6.972;2024-02-21T12:05:30;100898.81;;;10.11;69.56
54194;BME280;40102;50.906;6.972;2024-02-21T12:07:56;100881.84;;;10.12;69.61
54194;BME280;40102;50.906;6.972;2024-02-21T12:10:23;100873.13;;;10.08;68.84
54194;BME280;40102;50.906;6.972;2024-02-21T12:12:48;100871.38;;;10.07;69.51
54194;BME280;40102;50.906;6.972;2024-02-21T12:15:18;100864.88;;;10.13;70.16
54194;BME280;40102;50.906;6.972;2024-02-21T12:17:44;100850.19;;;10.21;70.04
54194;BME280;40102;50.906;6.972;2024-02-21T12:20:10;100835.97;;;10.21;70.30
54194;BME280;40102;50.906;6.972;2024-02-21T12:22:37;100830.63;;;10.21;70.68
54194;BME280;40102;50.906;6.972;2024-02-21T12:25:23;100832.81;;;10.30;68.97
54194;BME280;40102;50.906;6.972;2024-02-21T12:27:51;100818.75;;;10.26;69.30
54194;BME280;40102;50.906;6.972;2024-02-21T12:30:16;100819.75;;;10.24;70.71
54194;BME280;40102;50.906;6.972;2024-02-21T12:32:41;100801.75;;;10.27;70.22
54194;BME280;40102;50.906;6.972;2024-02-21T12:35:07;100796.25;;;10.30;70.54
54194;BME280;40102;50.906;6.972;2024-02-21T12:37:33;100797.09;;;10.31;70.54
54194;BME280;40102;50.906;6.972;2024-02-21T12:39:58;100786.41;;;10.31;70.86
54194;BME280;40102;50.906;6.972;2024-02-21T12:42:24;100769.44;;;10.32;70.59
54194;BME280;40102;50.906;6.972;2024-02-21T12:44:51;100765.03;;;10.31;70.19
54194;BME280;40102;50.906;6.972;2024-02-21T12:47:17;100757.00;;;10.31;70.99
54194;BME280;40102;50.906;6.972;2024-02-21T12:49:44;100738.03;;;10.35;70.66
54194;BME280;40102;50.906;6.972;2024-02-21T12:52:09;100712.16;;;10.36;70.32
54194;BME280;40102;50.906;6.972;2024-02-21T12:54:35;100685.44;;;10.36;70.64
54194;BME280;40102;50.906;6.972;2024-02-21T12:57:01;100661.38;;;10.36;71.08
54194;BME280;40102;50.906;6.972;2024-02-21T12:59:28;100680.66;;;10.41;71.46
54194;BME280;40102;50.906;6.972;2024-02-21T13:01:54;100654.59;;;10.45;70.44
54194;BME280;40102;50.906;6.972;2024-02-21T13:04:19;100632.28;;;10.46;69.76
54194;BME280;40102;50.906;6.972;2024-02-21T13:06:44;100652.81;;;10.45;69.94
54194;BME280;40102;50.906;6.972;2024-02-21T13:09:10;100676.09;;;10.43;70.08